createdAt,value
2023-04-16T00:02:10.483Z,3.53
2023-04-16T00:04:37.894Z,3.70
2023-04-16T00:07:04.976Z,3.65
2023-04-16T00:09:32.108Z,3.35
2023-04-16T00:11:59.211Z,3.78
2023-04-16T00:14:26.378Z,3.35
2023-04-16T00:16:53.493Z,3.10
2023-04-16T00:19:20.790Z,4.00
2023-04-16T00:21:47.851Z,3.70
2023-04-16T00:24:14.949Z,3.63
2023-04-16T00:26:44.527Z,3.85
2023-04-16T00:29:11.901Z,3.85
2023-04-16T00:31:39.090Z,3.60
2023-04-16T00:34:06.319Z,3.95
2023-04-16T00:36:33.354Z,3.33
2023-04-16T00:39:00.453Z,3.40
2023-04-16T00:41:27.706Z,3.33
2023-04-16T00:43:54.796Z,3.80
2023-04-16T00:46:24.317Z,4.05
2023-04-16T00:48:53.264Z,3.92
2023-04-16T00:51:21.688Z,3.75
2023-04-16T00:53:48.966Z,3.40
2023-04-16T00:56:17.671Z,3.65
2023-04-16T00:58:45.006Z,3.60
2023-04-16T01:01:12.197Z,3.65
2023-04-16T01:03:47.395Z,4.47
2023-04-16T01:06:14.983Z,4.13
2023-04-16T01:08:42.039Z,3.50
2023-04-16T01:11:10.182Z,4.03
2023-04-16T01:13:40.544Z,3.35
2023-04-16T01:16:09.291Z,3.63
2023-04-16T01:18:37.342Z,3.70
2023-04-16T01:21:05.311Z,3.47
2023-04-16T01:23:32.541Z,3.45
2023-04-16T01:25:59.755Z,3.72
2023-04-16T01:28:26.983Z,3.13
2023-04-16T01:30:54.045Z,3.58
2023-04-16T01:33:22.914Z,4.15
2023-04-16T01:35:50.015Z,3.55
2023-04-16T01:38:17.481Z,4.00
2023-04-16T01:40:44.628Z,3.95
2023-04-16T01:43:11.702Z,4.03
2023-04-16T01:45:38.862Z,3.30
2023-04-16T01:48:06.666Z,3.60
2023-04-16T01:50:33.970Z,3.70
2023-04-16T01:53:02.370Z,3.58
2023-04-16T01:55:29.435Z,3.45
2023-04-16T01:57:56.506Z,4.03
2023-04-16T02:00:23.481Z,3.30
2023-04-16T02:02:50.837Z,3.83
2023-04-16T02:05:18.078Z,4.38
2023-04-16T02:07:45.141Z,3.50
2023-04-16T02:10:12.536Z,3.45
2023-04-16T02:12:39.589Z,3.45
2023-04-16T02:15:07.451Z,3.70
2023-04-16T02:17:34.575Z,4.00
2023-04-16T02:20:03.627Z,3.10
2023-04-16T02:22:30.791Z,3.95
2023-04-16T02:24:57.871Z,3.83
2023-04-16T02:27:24.928Z,3.13
2023-04-16T02:29:51.966Z,3.33
2023-04-16T02:32:19.180Z,3.75
2023-04-16T02:34:46.324Z,4.10
2023-04-16T02:37:15.540Z,4.13
2023-04-16T02:39:44.216Z,3.45
2023-04-16T02:42:11.210Z,3.70
2023-04-16T02:44:38.368Z,3.22
2023-04-16T02:47:05.403Z,3.60
2023-04-16T02:49:32.537Z,3.42
2023-04-16T02:51:59.826Z,3.33
2023-04-16T02:54:26.823Z,3.35
2023-04-16T02:56:53.871Z,3.80
2023-04-16T02:59:21.140Z,3.35
2023-04-16T03:01:48.321Z,4.05
2023-04-16T03:04:15.532Z,3.17
2023-04-16T03:06:42.669Z,3.72
2023-04-16T03:09:09.865Z,3.28
2023-04-16T03:11:36.950Z,3.03
2023-04-16T03:14:04.094Z,3.70
2023-04-16T03:16:31.133Z,3.45
2023-04-16T03:18:58.109Z,3.55
2023-04-16T03:21:26.221Z,3.45
2023-04-16T03:23:54.191Z,3.13
2023-04-16T03:26:21.249Z,4.20
2023-04-16T03:28:48.394Z,3.13
2023-04-16T03:31:15.676Z,3.15
2023-04-16T03:33:42.865Z,3.00
2023-04-16T03:36:10.771Z,3.35
2023-04-16T03:38:37.833Z,3.47
2023-04-16T03:41:04.924Z,3.67
2023-04-16T03:43:32.052Z,3.60
2023-04-16T03:45:59.162Z,3.63
2023-04-16T03:48:26.403Z,3.30
2023-04-16T03:50:53.509Z,3.10
2023-04-16T03:53:20.673Z,3.17
2023-04-16T03:55:51.680Z,3.00
2023-04-16T03:58:19.945Z,3.03
2023-04-16T04:00:47.092Z,3.00
2023-04-16T04:03:17.465Z,2.78
2023-04-16T04:05:44.814Z,3.00
2023-04-16T04:08:11.999Z,2.88
2023-04-16T04:10:39.208Z,3.28
2023-04-16T04:13:07.494Z,3.50
2023-04-16T04:15:34.647Z,3.20
2023-04-16T04:18:01.794Z,3.08
2023-04-16T04:20:28.982Z,3.20
2023-04-16T04:22:56.028Z,3.42
2023-04-16T04:25:23.197Z,3.03
2023-04-16T04:27:50.318Z,3.00
2023-04-16T04:30:17.371Z,3.05
2023-04-16T04:32:44.447Z,2.83
2023-04-16T04:35:11.621Z,3.15
2023-04-16T04:37:38.615Z,2.95
2023-04-16T04:40:06.323Z,2.92
2023-04-16T04:42:33.764Z,3.33
2023-04-16T04:45:00.897Z,3.17
2023-04-16T04:47:28.000Z,3.13
2023-04-16T04:49:55.113Z,3.17
2023-04-16T04:52:22.159Z,3.15
2023-04-16T04:54:49.209Z,3.00
2023-04-16T04:57:16.440Z,4.03
2023-04-16T04:59:43.519Z,3.00
2023-04-16T05:02:10.616Z,3.08
2023-04-16T05:04:37.684Z,3.28
2023-04-16T05:07:04.840Z,2.83
2023-04-16T05:09:31.969Z,3.33
2023-04-16T05:11:59.501Z,3.20
2023-04-16T05:14:26.648Z,3.30
2023-04-16T05:16:54.343Z,3.08
2023-04-16T05:19:21.591Z,2.50
2023-04-16T05:21:48.667Z,2.90
2023-04-16T05:24:15.730Z,3.10
2023-04-16T05:26:42.754Z,3.47
2023-04-16T05:29:10.403Z,2.92
2023-04-16T05:31:37.616Z,2.92
2023-04-16T05:34:04.632Z,3.17
2023-04-16T05:36:31.865Z,3.00
2023-04-16T05:38:58.844Z,2.88
2023-04-16T05:41:26.036Z,3.20
2023-04-16T05:43:53.105Z,2.92
2023-04-16T05:46:20.179Z,3.30
2023-04-16T05:48:47.278Z,3.40
2023-04-16T05:51:14.348Z,2.85
2023-04-16T05:53:41.946Z,2.70
2023-04-16T05:56:09.145Z,2.85
2023-04-16T05:58:36.612Z,3.40
2023-04-16T06:01:03.805Z,2.90
2023-04-16T06:03:31.224Z,3.20
2023-04-16T06:05:58.498Z,3.30
2023-04-16T06:08:25.632Z,3.20
2023-04-16T06:10:52.699Z,2.78
2023-04-16T06:13:20.023Z,3.78
2023-04-16T06:15:47.190Z,4.07
2023-04-16T06:18:14.690Z,3.28
2023-04-16T06:20:41.745Z,3.00
2023-04-16T06:23:08.873Z,3.00
2023-04-16T06:25:35.871Z,2.90
2023-04-16T06:28:03.033Z,3.17
2023-04-16T06:30:30.450Z,3.17
2023-04-16T06:32:57.664Z,3.58
2023-04-16T06:35:24.731Z,2.80
2023-04-16T06:37:51.950Z,3.08
2023-04-16T06:40:19.082Z,2.83
2023-04-16T06:42:46.232Z,3.10
2023-04-16T06:45:14.566Z,2.70
2023-04-16T06:47:41.718Z,3.42
2023-04-16T06:50:09.100Z,2.80
2023-04-16T06:52:36.271Z,3.50
2023-04-16T06:55:03.486Z,3.03
2023-04-16T06:57:30.800Z,2.78
2023-04-16T06:59:57.797Z,3.05
2023-04-16T07:02:25.090Z,2.70
2023-04-16T07:04:52.711Z,2.67
2023-04-16T07:07:19.813Z,2.55
2023-04-16T07:09:46.924Z,3.40
2023-04-16T07:12:14.086Z,2.75
2023-04-16T07:14:41.788Z,2.78
2023-04-16T07:17:09.008Z,2.60
2023-04-16T07:19:36.235Z,2.78
2023-04-16T07:22:03.493Z,3.28
2023-04-16T07:24:30.818Z,3.10
2023-04-16T07:26:57.887Z,3.03
2023-04-16T07:29:25.001Z,2.97
2023-04-16T07:31:52.151Z,2.53
2023-04-16T07:34:19.418Z,3.03
2023-04-16T07:36:46.670Z,3.30
2023-04-16T07:39:13.941Z,2.70
2023-04-16T07:41:41.695Z,3.33
2023-04-16T07:44:08.836Z,3.03
2023-04-16T07:46:45.570Z,3.20
2023-04-16T07:49:14.436Z,3.15
2023-04-16T07:51:41.582Z,2.78
2023-04-16T07:54:08.639Z,2.95
2023-04-16T07:56:36.001Z,2.70
2023-04-16T07:59:14.854Z,3.00
2023-04-16T08:01:49.967Z,3.00
2023-04-16T08:04:23.473Z,3.08
2023-04-16T08:06:51.799Z,3.22
2023-04-16T08:09:20.939Z,3.13
2023-04-16T08:11:49.497Z,3.33
2023-04-16T08:14:19.623Z,2.90
2023-04-16T08:16:47.503Z,3.00
2023-04-16T08:19:15.150Z,3.25
2023-04-16T08:21:42.733Z,3.20
2023-04-16T08:24:09.945Z,2.60
2023-04-16T08:26:36.991Z,3.03
2023-04-16T08:29:04.282Z,2.90
2023-04-16T08:31:31.809Z,3.20
2023-04-16T08:33:58.975Z,2.63
2023-04-16T08:36:26.240Z,2.63
2023-04-16T08:38:53.308Z,2.63
2023-04-16T08:41:22.245Z,3.10
2023-04-16T08:43:52.391Z,2.95
2023-04-16T08:46:23.117Z,3.85
2023-04-16T08:48:56.516Z,3.08
2023-04-16T08:51:24.603Z,2.83
2023-04-16T08:54:00.754Z,2.97
2023-04-16T08:56:28.082Z,2.90
2023-04-16T08:58:55.698Z,3.05
2023-04-16T09:01:23.173Z,3.45
2023-04-16T09:03:50.354Z,3.15
2023-04-16T09:06:18.551Z,3.13
2023-04-16T09:08:46.643Z,3.55
2023-04-16T09:11:20.735Z,3.38
2023-04-16T09:13:48.209Z,3.10
2023-04-16T09:16:15.649Z,3.38
2023-04-16T09:18:42.846Z,3.25
2023-04-16T09:21:13.665Z,3.28
2023-04-16T09:23:41.196Z,3.92
2023-04-16T09:26:08.373Z,3.38
2023-04-16T09:28:51.302Z,3.55
2023-04-16T09:31:19.540Z,3.17
2023-04-16T09:34:08.152Z,2.85
2023-04-16T09:36:36.830Z,3.05
2023-04-16T09:39:04.248Z,3.40
2023-04-16T09:41:33.460Z,3.92
2023-04-16T09:44:02.494Z,4.10
2023-04-16T09:46:35.755Z,3.35
2023-04-16T09:49:19.225Z,3.83
2023-04-16T09:51:48.744Z,4.18
2023-04-16T09:54:16.382Z,3.92
2023-04-16T09:56:46.163Z,3.42
2023-04-16T09:59:19.377Z,3.60
2023-04-16T10:02:14.418Z,3.60
2023-04-16T10:04:51.881Z,4.30
2023-04-16T10:07:20.201Z,3.17
2023-04-16T10:09:49.035Z,3.20
2023-04-16T10:12:17.058Z,4.18
2023-04-16T10:14:45.518Z,4.13
2023-04-16T10:17:13.883Z,3.60
2023-04-16T10:19:43.662Z,3.40
2023-04-16T10:22:11.766Z,3.08
2023-04-16T10:24:39.215Z,4.10
2023-04-16T10:30:09.556Z,3.50
2023-04-16T10:32:38.466Z,3.50
2023-04-16T10:35:06.682Z,3.42
2023-04-16T10:37:34.342Z,3.60
2023-04-16T10:40:01.773Z,3.67
2023-04-16T10:42:29.552Z,4.03
2023-04-16T10:45:00.895Z,4.15
2023-04-16T10:47:29.655Z,3.55
2023-04-16T10:49:58.449Z,3.90
2023-04-16T10:52:25.871Z,3.17
2023-04-16T10:54:53.892Z,3.67
2023-04-16T10:57:21.508Z,3.50
2023-04-16T10:59:49.765Z,3.55
2023-04-16T11:02:19.078Z,3.55
2023-04-16T11:04:48.232Z,3.55
2023-04-16T11:07:19.054Z,3.42
2023-04-16T11:09:53.278Z,3.67
2023-04-16T11:12:24.939Z,3.47
2023-04-16T11:14:54.392Z,3.13
2023-04-16T11:17:21.994Z,3.38
2023-04-16T11:19:49.398Z,3.30
2023-04-16T11:22:18.058Z,4.20
2023-04-16T11:24:46.694Z,3.67
2023-04-16T11:27:15.528Z,3.83
2023-04-16T11:29:45.080Z,3.10
2023-04-16T11:32:23.274Z,3.40
2023-04-16T11:34:50.870Z,3.15
2023-04-16T11:37:22.696Z,3.38
2023-04-16T11:39:52.247Z,3.17
2023-04-16T11:42:27.230Z,3.58
2023-04-16T11:45:00.798Z,3.75
2023-04-16T11:47:29.746Z,3.47
2023-04-16T11:49:57.822Z,3.70
2023-04-16T11:52:33.370Z,3.40
2023-04-16T11:55:00.856Z,3.35
2023-04-16T11:57:30.987Z,3.35
2023-04-16T12:00:01.906Z,3.47
2023-04-16T12:02:51.865Z,3.38
2023-04-16T12:05:39.366Z,3.75
2023-04-16T12:08:19.090Z,3.83
2023-04-16T12:11:04.438Z,4.18
2023-04-16T12:13:32.106Z,3.65
2023-04-16T12:16:02.254Z,3.85
2023-04-16T12:18:32.577Z,3.80
2023-04-16T12:21:02.033Z,3.20
2023-04-16T12:23:34.611Z,3.60
2023-04-16T12:26:11.026Z,3.35
2023-04-16T12:28:38.888Z,3.38
2023-04-16T12:31:08.646Z,3.92
2023-04-16T12:33:35.916Z,3.80
2023-04-16T12:36:33.654Z,3.63
2023-04-16T12:39:04.389Z,3.28
2023-04-16T12:41:38.218Z,3.60
2023-04-16T12:44:24.096Z,3.90
2023-04-16T12:46:51.364Z,3.83
2023-04-16T12:49:18.532Z,5.07
2023-04-16T12:51:45.833Z,5.28
2023-04-16T12:54:13.273Z,6.40
2023-04-16T12:56:40.632Z,6.35
2023-04-16T12:59:10.765Z,6.13
2023-04-16T13:01:38.384Z,3.72
2023-04-16T13:04:06.207Z,4.32
2023-04-16T13:06:38.487Z,7.53
2023-04-16T13:09:05.894Z,4.53
2023-04-16T13:11:33.549Z,3.80
2023-04-16T13:14:00.802Z,4.22
2023-04-16T13:16:28.031Z,6.20
2023-04-16T13:18:55.281Z,6.15
2023-04-16T13:21:24.437Z,4.07
2023-04-16T13:23:51.926Z,3.83
2023-04-16T13:26:19.022Z,5.93
2023-04-16T13:28:46.260Z,9.18
2023-04-16T13:31:13.461Z,4.35
2023-04-16T13:33:40.746Z,4.03
2023-04-16T13:36:08.068Z,4.88
2023-04-16T13:38:35.404Z,6.97
2023-04-16T13:41:02.708Z,7.00
2023-04-16T13:43:29.965Z,6.80
2023-04-16T13:45:57.153Z,7.40
2023-04-16T13:48:24.396Z,5.60
2023-04-16T13:50:51.706Z,12.02
2023-04-16T13:53:18.886Z,8.75
2023-04-16T13:55:46.211Z,9.18
2023-04-16T13:58:13.552Z,11.07
2023-04-16T14:00:40.687Z,5.03
2023-04-16T14:03:07.916Z,7.22
2023-04-16T14:05:35.547Z,4.68
2023-04-16T14:08:02.609Z,4.13
2023-04-16T14:10:32.803Z,4.20
2023-04-16T14:13:00.228Z,4.68
2023-04-16T14:15:30.057Z,4.13
2023-04-16T14:17:57.187Z,4.13
2023-04-16T14:20:24.416Z,4.40
2023-04-16T14:22:51.630Z,4.10
2023-04-16T14:25:19.033Z,4.00
2023-04-16T14:27:46.221Z,4.32
2023-04-16T14:30:13.544Z,4.18
2023-04-16T14:32:40.860Z,4.65
2023-04-16T14:35:08.781Z,4.57
2023-04-16T14:37:37.019Z,4.38
2023-04-16T14:40:09.138Z,3.88
2023-04-16T14:42:39.471Z,4.40
2023-04-16T14:45:07.836Z,4.43
2023-04-16T14:47:36.843Z,4.55
2023-04-16T14:50:05.593Z,3.65
2023-04-16T14:52:33.231Z,3.80
2023-04-16T14:55:00.921Z,4.32
2023-04-16T15:00:30.406Z,4.25
2023-04-16T15:02:58.171Z,3.63
2023-04-16T15:05:25.554Z,4.50
2023-04-16T15:07:52.788Z,4.25
2023-04-16T15:10:22.025Z,3.25
2023-04-16T15:12:52.064Z,4.20
2023-04-16T15:15:19.472Z,3.60
2023-04-16T15:17:52.365Z,3.58
2023-04-16T15:20:19.548Z,4.30
2023-04-16T15:22:46.728Z,4.30
2023-04-16T15:25:15.416Z,4.00
2023-04-16T15:27:42.688Z,3.60
2023-04-16T15:30:10.286Z,3.65
2023-04-16T15:33:23.786Z,4.05
2023-04-16T15:35:49.264Z,3.28
2023-04-16T15:38:46.374Z,4.40
2023-04-16T15:41:13.691Z,4.00
2023-04-16T15:43:41.502Z,3.92
2023-04-16T15:46:12.016Z,3.92
2023-04-16T15:48:40.805Z,3.90
2023-04-16T15:51:11.627Z,3.80
2023-04-16T15:53:42.268Z,3.97
2023-04-16T15:56:11.050Z,3.88
2023-04-16T15:58:42.354Z,3.67
2023-04-16T16:01:09.910Z,3.72
2023-04-16T16:03:38.659Z,3.47
2023-04-16T16:06:08.074Z,3.40
2023-04-16T16:08:38.476Z,3.40
2023-04-16T16:11:06.121Z,4.03
2023-04-16T16:13:33.496Z,3.47
2023-04-16T16:16:01.289Z,3.70
2023-04-16T16:18:28.624Z,3.75
2023-04-16T16:20:59.743Z,3.35
2023-04-16T16:23:27.501Z,3.75
2023-04-16T16:25:58.616Z,3.80
2023-04-16T16:28:26.725Z,3.15
2023-04-16T16:30:56.940Z,3.60
2023-04-16T16:33:24.265Z,3.85
2023-04-16T16:35:54.446Z,3.67
2023-04-16T16:38:21.924Z,3.33
2023-04-16T16:40:49.252Z,3.22
2023-04-16T16:43:17.177Z,3.30
2023-04-16T16:45:44.638Z,3.72
2023-04-16T16:48:11.865Z,3.47
2023-04-16T16:50:52.683Z,3.20
2023-04-16T16:53:19.880Z,3.40
2023-04-16T16:55:55.068Z,3.45
2023-04-16T16:58:22.257Z,3.63
2023-04-16T17:00:49.819Z,3.28
2023-04-16T17:03:17.544Z,3.03
2023-04-16T17:05:44.867Z,3.28
2023-04-16T17:08:12.384Z,3.75
2023-04-16T17:10:39.740Z,3.20
2023-04-16T17:13:07.041Z,3.20
2023-04-16T17:15:34.857Z,3.30
2023-04-16T17:18:02.414Z,3.65
2023-04-16T17:20:29.687Z,3.28
2023-04-16T17:22:56.922Z,3.30
2023-04-16T17:25:36.332Z,3.30
2023-04-16T17:28:06.198Z,2.80
2023-04-16T17:30:33.673Z,3.58
2023-04-16T17:33:01.559Z,3.20
2023-04-16T17:35:30.279Z,3.45
2023-04-16T17:38:03.544Z,3.42
2023-04-16T17:40:31.088Z,2.95
2023-04-16T17:42:58.466Z,2.58
2023-04-16T17:45:26.108Z,2.80
2023-04-16T17:47:54.788Z,3.40
2023-04-16T17:50:21.985Z,2.70
2023-04-16T17:52:49.372Z,2.90
2023-04-16T17:55:17.702Z,3.70
2023-04-16T17:57:45.352Z,2.67
2023-04-16T18:01:08.564Z,2.60
2023-04-16T18:03:36.134Z,2.90
2023-04-16T18:06:03.426Z,2.88
2023-04-16T18:08:31.087Z,3.53
2023-04-16T18:10:58.203Z,3.08
2023-04-16T18:13:25.466Z,3.08
2023-04-16T18:15:53.905Z,3.25
2023-04-16T18:18:21.680Z,3.05
2023-04-16T18:20:48.924Z,2.90
2023-04-16T18:23:16.586Z,3.08
2023-04-16T18:25:44.587Z,3.25
2023-04-16T18:28:14.065Z,3.17
2023-04-16T18:30:41.959Z,3.50
2023-04-16T18:35:52.422Z,4.30
2023-04-16T18:38:19.518Z,4.10
2023-04-16T18:40:47.345Z,3.00
2023-04-16T18:43:14.826Z,2.97
2023-04-16T18:45:42.177Z,3.08
2023-04-16T18:48:09.400Z,3.22
2023-04-16T18:50:36.607Z,3.10
2023-04-16T18:53:03.756Z,3.50
2023-04-16T18:55:31.346Z,2.95
2023-04-16T18:57:58.498Z,3.22
2023-04-16T19:00:25.951Z,3.55
2023-04-16T19:02:53.411Z,2.92
2023-04-16T19:05:21.608Z,3.03
2023-04-16T19:07:48.929Z,3.25
2023-04-16T19:10:16.110Z,3.05
2023-04-16T19:12:43.408Z,2.88
2023-04-16T19:15:11.309Z,2.90
2023-04-16T19:17:39.847Z,2.97
2023-04-16T19:20:11.805Z,3.22
2023-04-16T19:22:39.031Z,3.33
2023-04-16T19:25:07.515Z,2.45
2023-04-16T19:27:35.664Z,2.72
2023-04-16T19:30:03.632Z,2.58
2023-04-16T19:32:31.308Z,2.95
2023-04-16T19:34:58.438Z,3.40
2023-04-16T19:37:25.681Z,3.03
2023-04-16T19:39:52.849Z,2.90
2023-04-16T19:42:20.034Z,3.28
2023-04-16T19:44:47.195Z,3.67
2023-04-16T19:47:17.537Z,2.50
2023-04-16T19:49:45.178Z,2.85
2023-04-16T19:52:12.310Z,3.00
2023-04-16T19:54:39.503Z,2.75
2023-04-16T19:57:06.649Z,3.15
2023-04-16T19:59:34.459Z,2.90
2023-04-16T20:02:02.143Z,2.80
2023-04-16T20:04:29.396Z,3.10
2023-04-16T20:06:56.905Z,2.80
2023-04-16T20:09:24.099Z,2.80
2023-04-16T20:11:51.844Z,3.47
2023-04-16T20:14:21.998Z,3.45
2023-04-16T20:16:49.395Z,2.97
2023-04-16T20:19:17.207Z,3.00
2023-04-16T20:21:45.781Z,2.90
2023-04-16T20:24:13.064Z,3.15
2023-04-16T20:26:40.436Z,3.25
2023-04-16T20:29:26.921Z,3.30
2023-04-16T20:35:59.541Z,3.47
2023-04-16T20:38:26.751Z,3.40
2023-04-16T20:41:06.439Z,3.78
2023-04-16T20:43:38.825Z,3.65
2023-04-16T20:46:06.729Z,3.38
2023-04-16T20:48:34.535Z,3.25
2023-04-16T20:51:05.492Z,3.30
2023-04-16T20:53:33.934Z,3.17
2023-04-16T20:56:01.256Z,3.20
2023-04-16T20:58:28.669Z,3.17
2023-04-16T21:01:00.353Z,3.13
2023-04-16T21:03:27.585Z,3.60
2023-04-16T21:05:55.958Z,3.53
2023-04-16T21:08:24.650Z,3.50
2023-04-16T21:10:51.844Z,3.55
2023-04-16T21:13:21.042Z,3.83
2023-04-16T21:15:49.076Z,3.42
2023-04-16T21:18:21.737Z,4.35
2023-04-16T21:20:49.195Z,3.80
2023-04-16T21:23:16.696Z,3.90
2023-04-16T21:29:24.981Z,2.65
2023-04-16T21:31:52.346Z,3.45
2023-04-16T21:34:19.932Z,3.63
2023-04-16T21:36:47.154Z,4.03
2023-04-16T21:39:16.388Z,3.22
2023-04-16T21:41:43.777Z,3.25
2023-04-16T21:44:10.900Z,3.50
2023-04-16T21:46:38.096Z,3.30
2023-04-16T21:49:05.270Z,3.03
2023-04-16T21:51:32.500Z,3.20
2023-04-16T21:53:59.957Z,3.20
2023-04-16T21:56:27.378Z,3.97
2023-04-16T21:58:54.441Z,3.90
2023-04-16T22:01:21.794Z,3.55
2023-04-16T22:03:52.450Z,2.53
2023-04-16T22:06:20.748Z,4.00
2023-04-16T22:08:50.274Z,3.40
2023-04-16T22:11:17.506Z,2.92
2023-04-16T22:13:46.671Z,3.50
2023-04-16T22:16:14.416Z,3.45
2023-04-16T22:18:42.328Z,3.05
2023-04-16T22:21:09.688Z,3.42
2023-04-16T22:23:36.946Z,3.60
2023-04-16T22:26:04.839Z,3.03
2023-04-16T22:28:32.228Z,3.28
2023-04-16T22:30:59.478Z,3.67
2023-04-16T22:33:31.996Z,3.30
2023-04-16T22:36:00.886Z,3.13
2023-04-16T22:38:28.129Z,2.65
2023-04-16T22:40:55.428Z,2.47
2023-04-16T22:43:22.714Z,3.17
2023-04-16T22:45:49.947Z,3.55
2023-04-16T22:48:17.554Z,2.72
2023-04-16T22:50:48.854Z,2.28
2023-04-16T22:53:16.102Z,2.30
2023-04-16T22:55:43.287Z,2.70
2023-04-16T22:58:10.358Z,2.55
2023-04-16T23:00:37.509Z,2.35
2023-04-16T23:03:04.746Z,2.40
2023-04-16T23:05:32.412Z,2.67
2023-04-16T23:07:59.914Z,2.35
2023-04-16T23:10:27.763Z,2.60
2023-04-16T23:12:54.918Z,2.60
2023-04-16T23:15:22.449Z,2.42
2023-04-16T23:17:49.544Z,2.25
2023-04-16T23:20:16.987Z,2.20
2023-04-16T23:22:44.242Z,2.40
2023-04-16T23:25:11.469Z,2.70
2023-04-16T23:27:38.821Z,2.40
2023-04-16T23:30:07.097Z,2.03
2023-04-16T23:32:34.564Z,2.30
2023-04-16T23:35:01.864Z,3.15
2023-04-16T23:37:28.993Z,2.42
2023-04-16T23:39:56.165Z,2.08
2023-04-16T23:42:23.237Z,2.53
2023-04-16T23:44:50.520Z,2.65
2023-04-16T23:47:17.599Z,2.33
2023-04-16T23:49:44.701Z,2.10
2023-04-16T23:52:11.899Z,2.22
2023-04-16T23:54:38.974Z,2.28
2023-04-16T23:57:06.083Z,2.05
2023-04-16T23:59:33.241Z,2.15
